Terminal Aerodrome Forecast
Issued by NWS Los Angeles, CA

Current Version | Previous Version | Text Only | Print | Product List | Glossary On
Versions: 1 2 3 4 5 6 7 8 9 10 11 12 13 14 15 16 17 18 19 20 21 22 23 24
000
FTUS46 KLOX 031739
TAFSMX
TAF
KSMX 031739Z 0318/0418 VRB04KT P6SM FEW008
     FM032000 31012KT P6SM SKC
     FM040300 31006KT P6SM BKN008
     FM040700 VRB03KT 4SM BR OVC006
     FM041100 00000KT 1SM BR OVC004=

USA.gov is the U.S. government's official web portal to all federal, state and local government web resources and services.